createdAt,value
2023-02-19T00:01:33.603Z,0.82
2023-02-19T00:04:03.175Z,0.80
2023-02-19T00:06:33.167Z,0.60
2023-02-19T00:09:01.428Z,1.35
2023-02-19T00:11:32.840Z,0.97
2023-02-19T00:14:02.482Z,0.90
2023-02-19T00:16:32.795Z,1.30
2023-02-19T00:19:02.120Z,1.00
2023-02-19T00:21:30.823Z,0.70
2023-02-19T00:24:00.627Z,1.00
2023-02-19T00:26:30.502Z,1.08
2023-02-19T00:28:59.114Z,0.70
2023-02-19T00:31:30.834Z,1.50
2023-02-19T00:34:01.932Z,0.90
2023-02-19T00:36:30.421Z,1.37
2023-02-19T00:38:58.262Z,0.80
2023-02-19T00:41:26.472Z,1.08
2023-02-19T00:43:57.914Z,1.08
2023-02-19T00:46:27.919Z,0.90
2023-02-19T00:48:56.505Z,1.13
2023-02-19T00:51:28.514Z,0.70
2023-02-19T00:53:56.478Z,0.80
2023-02-19T00:56:24.323Z,0.98
2023-02-19T00:58:52.354Z,1.48
2023-02-19T01:01:22.083Z,0.83
2023-02-19T01:03:50.577Z,1.25
2023-02-19T01:06:20.197Z,0.90
2023-02-19T01:08:48.491Z,1.15
2023-02-19T01:11:17.318Z,1.15
2023-02-19T01:13:45.704Z,1.03
2023-02-19T01:16:16.040Z,1.10
2023-02-19T01:18:45.953Z,1.10
2023-02-19T01:21:16.369Z,1.27
2023-02-19T01:23:45.160Z,1.05
2023-02-19T01:26:15.557Z,1.03
2023-02-19T01:28:43.606Z,1.35
2023-02-19T01:31:14.896Z,1.08
2023-02-19T01:33:47.421Z,0.95
2023-02-19T01:36:15.974Z,1.00
2023-02-19T01:38:44.175Z,1.50
2023-02-19T01:41:15.718Z,0.90
2023-02-19T01:44:02.311Z,0.90
2023-02-19T01:46:32.656Z,1.02
2023-02-19T01:49:05.462Z,0.95
2023-02-19T01:51:35.811Z,1.50
2023-02-19T01:54:08.181Z,0.90
2023-02-19T01:56:39.452Z,1.42
2023-02-19T01:59:08.467Z,1.10
2023-02-19T02:01:37.887Z,1.05
2023-02-19T02:04:09.005Z,0.80
2023-02-19T02:06:42.310Z,1.00
2023-02-19T02:09:27.973Z,1.25
2023-02-19T02:11:55.758Z,1.08
2023-02-19T02:14:28.740Z,1.42
2023-02-19T02:17:02.676Z,1.00
2023-02-19T02:20:02.382Z,0.85
2023-02-19T02:22:37.146Z,1.13
2023-02-19T02:25:37.608Z,1.05
2023-02-19T02:28:21.085Z,0.70
2023-02-19T02:30:53.055Z,0.90
2023-02-19T02:33:29.727Z,1.00
2023-02-19T02:36:00.220Z,1.30
2023-02-19T02:38:31.824Z,1.20
2023-02-19T02:41:00.140Z,0.88
2023-02-19T02:43:28.082Z,0.90
2023-02-19T02:45:57.459Z,1.00
2023-02-19T02:48:31.242Z,1.00
2023-02-19T02:51:03.573Z,0.82
2023-02-19T02:53:53.323Z,1.35
2023-02-19T02:56:21.987Z,1.33
2023-02-19T02:58:52.195Z,1.00
2023-02-19T03:01:43.563Z,0.80
2023-02-19T03:04:16.808Z,0.85
2023-02-19T03:06:46.394Z,0.80
2023-02-19T03:09:19.820Z,0.90
2023-02-19T03:12:08.675Z,0.93
2023-02-19T03:14:59.085Z,0.60
2023-02-19T03:17:52.354Z,1.55
2023-02-19T03:20:24.763Z,0.68
2023-02-19T03:22:54.218Z,0.80
2023-02-19T03:25:43.288Z,1.05
2023-02-19T03:28:13.707Z,0.82
2023-02-19T03:30:48.200Z,0.60
2023-02-19T03:33:20.627Z,0.50
2023-02-19T03:35:53.496Z,0.83
2023-02-19T03:38:24.476Z,0.50
2023-02-19T03:40:58.923Z,1.05
2023-02-19T03:43:36.024Z,0.88
2023-02-19T03:46:10.327Z,1.02
2023-02-19T03:48:47.303Z,0.80
2023-02-19T03:51:28.637Z,0.60
2023-02-19T03:54:04.995Z,0.90
2023-02-19T03:56:39.222Z,0.90
2023-02-19T03:59:11.410Z,1.08
2023-02-19T04:01:45.669Z,0.80
2023-02-19T04:04:20.023Z,0.75
2023-02-19T04:06:54.510Z,0.98
2023-02-19T04:09:24.932Z,0.80
2023-02-19T04:11:54.490Z,0.50
2023-02-19T04:14:25.856Z,0.60
2023-02-19T04:16:59.324Z,0.85
2023-02-19T04:19:31.121Z,0.85
2023-02-19T04:22:00.819Z,0.90
2023-02-19T04:24:32.338Z,0.70
2023-02-19T04:27:00.722Z,0.60
2023-02-19T04:29:28.474Z,0.73
2023-02-19T04:31:56.318Z,0.85
2023-02-19T04:34:24.188Z,0.55
2023-02-19T04:36:53.350Z,0.80
2023-02-19T04:39:21.228Z,0.70
2023-02-19T04:41:49.007Z,1.02
2023-02-19T04:44:16.855Z,0.80
2023-02-19T04:46:44.629Z,0.80
2023-02-19T04:49:12.439Z,1.00
2023-02-19T04:51:41.084Z,0.47
2023-02-19T04:54:10.308Z,0.77
2023-02-19T04:56:38.119Z,0.80
2023-02-19T04:59:05.932Z,0.93
2023-02-19T05:01:33.821Z,1.00
2023-02-19T05:04:01.644Z,0.80
2023-02-19T05:06:29.459Z,0.60
2023-02-19T05:08:57.285Z,1.40
2023-02-19T05:11:26.559Z,1.00
2023-02-19T05:13:55.839Z,0.40
2023-02-19T05:16:23.796Z,0.90
2023-02-19T05:18:51.625Z,0.75
2023-02-19T05:21:19.499Z,1.10
2023-02-19T05:23:47.340Z,0.60
2023-02-19T05:26:18.099Z,0.68
2023-02-19T05:28:48.442Z,1.37
2023-02-19T05:31:16.587Z,0.60
2023-02-19T05:33:45.734Z,1.13
2023-02-19T05:36:14.960Z,0.65
2023-02-19T05:38:43.193Z,0.82
2023-02-19T05:41:13.016Z,1.03
2023-02-19T05:43:42.088Z,0.60
2023-02-19T05:46:12.059Z,0.60
2023-02-19T05:48:40.012Z,0.60
2023-02-19T05:51:09.652Z,0.77
2023-02-19T05:53:38.547Z,0.57
2023-02-19T05:56:20.091Z,0.50
2023-02-19T05:58:48.142Z,0.70
2023-02-19T06:01:18.465Z,0.75
2023-02-19T06:03:46.334Z,0.95
2023-02-19T06:06:15.163Z,0.93
2023-02-19T06:08:43.056Z,0.65
2023-02-19T06:11:11.380Z,0.60
2023-02-19T06:13:39.479Z,0.50
2023-02-19T06:16:08.802Z,0.80
2023-02-19T06:18:40.364Z,1.33
2023-02-19T06:21:10.695Z,0.68
2023-02-19T06:23:38.804Z,0.80
2023-02-19T06:26:09.319Z,0.40
2023-02-19T06:28:37.521Z,0.63
2023-02-19T06:31:05.761Z,0.63
2023-02-19T06:33:34.158Z,0.85
2023-02-19T06:36:05.192Z,0.50
2023-02-19T06:38:33.000Z,0.75
2023-02-19T06:41:01.778Z,0.77
2023-02-19T06:43:30.122Z,1.30
2023-02-19T06:45:59.181Z,0.60
2023-02-19T06:48:27.274Z,0.70
2023-02-19T06:50:55.181Z,0.88
2023-02-19T06:53:25.053Z,0.65
2023-02-19T06:55:59.570Z,0.80
2023-02-19T06:58:27.696Z,0.35
2023-02-19T07:00:55.666Z,0.70
2023-02-19T07:03:24.030Z,0.75
2023-02-19T07:05:51.860Z,0.60
2023-02-19T07:08:19.677Z,0.70
2023-02-19T07:10:55.417Z,0.90
2023-02-19T07:13:23.298Z,0.50
2023-02-19T07:15:52.225Z,0.57
2023-02-19T07:18:20.141Z,0.70
2023-02-19T07:20:47.914Z,1.17
2023-02-19T07:23:15.721Z,0.85
2023-02-19T07:25:43.544Z,0.80
2023-02-19T07:28:12.746Z,0.63
2023-02-19T07:30:40.586Z,0.95
2023-02-19T07:33:10.471Z,0.90
2023-02-19T07:35:38.548Z,0.90
2023-02-19T07:38:06.307Z,1.17
2023-02-19T07:40:34.691Z,0.98
2023-02-19T07:43:02.458Z,0.77
2023-02-19T07:45:31.645Z,1.03
2023-02-19T07:47:59.448Z,1.08
2023-02-19T07:50:27.321Z,1.00
2023-02-19T07:52:55.095Z,0.90
2023-02-19T07:55:22.929Z,1.20
2023-02-19T07:57:50.731Z,1.00
2023-02-19T08:00:19.157Z,1.20
2023-02-19T08:03:03.269Z,1.13
2023-02-19T08:05:33.094Z,1.10
2023-02-19T08:08:01.283Z,1.38
2023-02-19T08:10:46.765Z,1.23
2023-02-19T08:13:23.593Z,1.20
2023-02-19T08:15:53.656Z,1.70
2023-02-19T08:18:25.167Z,1.50
2023-02-19T08:20:53.469Z,1.30
2023-02-19T08:23:21.773Z,1.20
2023-02-19T08:25:51.535Z,1.40
2023-02-19T08:28:20.370Z,1.70
2023-02-19T08:30:48.707Z,1.45
2023-02-19T08:33:18.515Z,1.40
2023-02-19T08:35:48.509Z,1.30
2023-02-19T08:38:17.355Z,1.75
2023-02-19T08:40:45.660Z,1.52
2023-02-19T08:43:15.461Z,1.48
2023-02-19T08:45:47.270Z,1.88
2023-02-19T08:48:15.510Z,1.70
2023-02-19T08:50:43.289Z,1.70
2023-02-19T08:53:12.497Z,2.40
2023-02-19T08:55:40.267Z,1.80
2023-02-19T08:58:08.075Z,1.50
2023-02-19T09:00:35.844Z,1.77
2023-02-19T09:03:03.644Z,1.70
2023-02-19T09:05:31.439Z,2.00
2023-02-19T09:07:59.230Z,2.00
2023-02-19T09:10:28.375Z,1.90
2023-02-19T09:12:56.172Z,2.00
2023-02-19T09:15:23.996Z,2.10
2023-02-19T09:17:52.804Z,2.08
2023-02-19T09:20:20.640Z,2.30
2023-02-19T09:22:48.504Z,2.53
2023-02-19T09:25:16.369Z,2.17
2023-02-19T09:27:45.709Z,1.90
2023-02-19T09:30:14.014Z,2.60
2023-02-19T09:32:41.813Z,2.35
2023-02-19T09:35:09.570Z,2.17
2023-02-19T09:37:37.355Z,1.93
2023-02-19T09:40:05.490Z,2.17
2023-02-19T09:42:34.311Z,2.28
2023-02-19T09:45:06.175Z,2.60
2023-02-19T09:47:35.805Z,2.20
2023-02-19T09:50:08.564Z,2.27
2023-02-19T09:52:39.701Z,2.65
2023-02-19T09:55:16.060Z,2.53
2023-02-19T09:57:45.900Z,2.20
2023-02-19T10:00:23.927Z,2.90
2023-02-19T10:02:56.785Z,2.20
2023-02-19T10:05:26.310Z,2.78
2023-02-19T10:07:56.367Z,2.63
2023-02-19T10:10:29.613Z,2.22
2023-02-19T10:13:10.456Z,2.45
2023-02-19T10:15:46.194Z,2.30
2023-02-19T10:18:17.011Z,2.30
2023-02-19T10:20:44.926Z,2.78
2023-02-19T10:23:15.567Z,2.55
2023-02-19T10:25:48.032Z,2.33
2023-02-19T10:28:19.031Z,2.50
2023-02-19T10:30:53.124Z,2.95
2023-02-19T10:33:21.825Z,3.17
2023-02-19T10:35:58.599Z,2.60
2023-02-19T10:38:29.405Z,2.55
2023-02-19T10:41:04.701Z,2.27
2023-02-19T10:43:36.528Z,2.17
2023-02-19T10:46:08.528Z,2.20
2023-02-19T10:48:38.523Z,2.55
2023-02-19T10:51:11.029Z,2.63
2023-02-19T10:53:45.605Z,1.90
2023-02-19T10:56:15.922Z,2.22
2023-02-19T10:58:47.216Z,2.47
2023-02-19T11:01:19.825Z,2.40
2023-02-19T11:03:48.697Z,1.60
2023-02-19T11:06:19.227Z,1.87
2023-02-19T11:08:53.411Z,1.50
2023-02-19T11:11:33.985Z,2.13
2023-02-19T11:14:05.251Z,1.65
2023-02-19T11:16:44.130Z,1.60
2023-02-19T11:19:27.959Z,1.20
2023-02-19T11:21:56.882Z,1.13
2023-02-19T11:24:29.889Z,1.15
2023-02-19T11:26:59.515Z,1.20
2023-02-19T11:29:28.784Z,1.40
2023-02-19T11:31:58.060Z,1.40
2023-02-19T11:34:30.815Z,1.30
2023-02-19T11:37:15.440Z,1.20
2023-02-19T11:39:45.471Z,1.08
2023-02-19T11:42:40.700Z,1.25
2023-02-19T11:45:17.945Z,1.20
2023-02-19T11:48:01.962Z,1.20
2023-02-19T11:50:44.447Z,1.42
2023-02-19T11:53:21.824Z,1.67
2023-02-19T11:56:00.112Z,1.73
2023-02-19T11:59:06.020Z,1.50
2023-02-19T12:02:16.972Z,1.55
2023-02-19T12:05:20.737Z,1.90
2023-02-19T12:08:25.728Z,1.67
2023-02-19T12:11:10.009Z,1.92
2023-02-19T12:14:00.486Z,2.33
2023-02-19T12:16:35.233Z,1.80
2023-02-19T12:19:16.321Z,2.03
2023-02-19T12:21:56.629Z,1.77
2023-02-19T12:24:52.504Z,1.98
2023-02-19T12:27:30.262Z,1.73
2023-02-19T12:30:17.294Z,2.53
2023-02-19T12:33:04.996Z,2.33
2023-02-19T12:35:50.047Z,1.60
2023-02-19T12:38:24.375Z,1.80
2023-02-19T12:41:10.474Z,1.83
2023-02-19T12:43:41.623Z,1.50
2023-02-19T12:46:13.991Z,1.90
2023-02-19T12:48:47.496Z,1.60
2023-02-19T12:51:20.537Z,1.63
2023-02-19T12:53:55.485Z,1.40
2023-02-19T12:56:29.913Z,1.40
2023-02-19T12:59:02.194Z,1.42
2023-02-19T13:01:36.008Z,1.40
2023-02-19T13:04:18.969Z,1.40
2023-02-19T13:06:52.738Z,1.00
2023-02-19T13:09:28.337Z,1.60
2023-02-19T13:12:00.228Z,1.40
2023-02-19T13:14:33.067Z,1.10
2023-02-19T13:17:06.362Z,1.20
2023-02-19T13:19:34.813Z,0.97
2023-02-19T13:22:27.770Z,1.00
2023-02-19T13:24:57.768Z,1.10
2023-02-19T13:27:56.911Z,1.20
2023-02-19T13:30:41.963Z,1.25
2023-02-19T13:33:28.552Z,1.47
2023-02-19T13:36:07.084Z,1.20
2023-02-19T13:38:39.676Z,1.05
2023-02-19T13:41:20.265Z,1.15
2023-02-19T13:43:56.398Z,1.20
2023-02-19T13:46:25.679Z,1.07
2023-02-19T13:49:28.975Z,0.95
2023-02-19T13:51:57.978Z,0.70
2023-02-19T13:54:28.414Z,0.85
2023-02-19T13:57:30.698Z,0.80
2023-02-19T13:59:58.987Z,0.90
2023-02-19T14:02:30.916Z,0.75
2023-02-19T14:05:01.515Z,0.93
2023-02-19T14:08:01.830Z,0.80
2023-02-19T14:11:02.454Z,0.88
2023-02-19T14:14:11.107Z,0.97
2023-02-19T14:16:57.872Z,0.85
2023-02-19T14:19:57.032Z,0.50
2023-02-19T14:23:07.742Z,0.80
2023-02-19T14:25:41.086Z,0.60
2023-02-19T14:28:30.050Z,0.70
2023-02-19T14:31:00.972Z,0.57
2023-02-19T14:33:32.871Z,0.60
2023-02-19T14:36:06.842Z,0.70
2023-02-19T14:38:39.551Z,0.88
2023-02-19T14:41:08.813Z,0.63
2023-02-19T14:43:38.410Z,0.80
2023-02-19T14:46:17.055Z,0.70
2023-02-19T14:48:49.426Z,0.60
2023-02-19T14:51:28.952Z,0.80
2023-02-19T14:53:59.171Z,0.63
2023-02-19T14:56:29.576Z,0.70
2023-02-19T14:59:08.703Z,0.80
2023-02-19T15:01:36.828Z,0.80
2023-02-19T15:04:06.885Z,1.20
2023-02-19T15:06:36.521Z,0.90
2023-02-19T15:09:07.776Z,0.70
2023-02-19T15:11:37.013Z,0.75
2023-02-19T15:14:07.935Z,0.88
2023-02-19T15:16:37.717Z,0.90
2023-02-19T15:19:10.520Z,0.70
2023-02-19T15:21:44.517Z,0.60
2023-02-19T15:24:15.422Z,0.60
2023-02-19T15:26:45.880Z,0.93
2023-02-19T15:29:15.960Z,0.70
2023-02-19T15:31:47.515Z,0.70
2023-02-19T15:34:19.847Z,0.80
2023-02-19T15:36:48.787Z,0.70
2023-02-19T15:39:22.424Z,0.85
2023-02-19T15:41:55.874Z,0.80
2023-02-19T15:44:37.447Z,0.67
2023-02-19T15:47:11.141Z,0.77
2023-02-19T15:49:50.919Z,0.68
2023-02-19T15:52:34.733Z,0.90
2023-02-19T15:55:09.740Z,0.93
2023-02-19T15:57:44.218Z,0.93
2023-02-19T16:00:17.944Z,0.80
2023-02-19T16:02:47.226Z,0.60
2023-02-19T16:05:24.480Z,0.73
2023-02-19T16:08:08.005Z,0.55
2023-02-19T16:10:36.043Z,0.70
2023-02-19T16:13:05.563Z,0.90
2023-02-19T16:15:34.417Z,0.90
2023-02-19T16:18:02.802Z,0.82
2023-02-19T16:20:35.447Z,0.88
2023-02-19T16:23:05.592Z,0.80
2023-02-19T16:25:40.319Z,0.70
2023-02-19T16:28:14.063Z,0.80
2023-02-19T16:30:42.715Z,1.20
2023-02-19T16:33:36.243Z,0.52
2023-02-19T16:36:27.335Z,0.60
2023-02-19T16:39:16.494Z,0.82
2023-02-19T16:42:18.325Z,0.70
2023-02-19T16:44:47.556Z,0.70
2023-02-19T16:47:32.572Z,0.63
2023-02-19T16:50:03.692Z,0.53
2023-02-19T16:52:32.874Z,0.55
2023-02-19T16:55:00.635Z,0.70
2023-02-19T16:57:29.444Z,0.70
2023-02-19T16:59:57.199Z,1.15
2023-02-19T17:02:26.309Z,0.60
2023-02-19T17:04:55.688Z,0.70
2023-02-19T17:07:23.991Z,1.10
2023-02-19T17:09:53.131Z,0.60
2023-02-19T17:12:21.429Z,0.57
2023-02-19T17:14:49.231Z,0.73
2023-02-19T17:17:16.991Z,0.80
2023-02-19T17:19:44.874Z,0.73
2023-02-19T17:22:16.783Z,0.70
2023-02-19T17:24:45.891Z,0.60
2023-02-19T17:27:15.389Z,0.83
2023-02-19T17:29:43.168Z,0.93
2023-02-19T17:32:11.065Z,0.60
2023-02-19T17:34:39.009Z,0.60
2023-02-19T17:37:06.872Z,0.68
2023-02-19T17:39:34.686Z,0.60
2023-02-19T17:42:02.474Z,0.80
2023-02-19T17:44:31.692Z,0.60
2023-02-19T17:46:59.487Z,1.00
2023-02-19T17:49:27.257Z,0.80
2023-02-19T17:51:55.102Z,0.80
2023-02-19T17:54:22.894Z,0.98
2023-02-19T17:56:50.701Z,0.70
2023-02-19T17:59:18.495Z,0.90
2023-02-19T18:01:47.700Z,1.27
2023-02-19T18:04:15.542Z,0.97
2023-02-19T18:06:43.740Z,0.63
2023-02-19T18:09:15.153Z,0.90
2023-02-19T18:11:45.712Z,0.90
2023-02-19T18:14:13.518Z,0.82
2023-02-19T18:16:49.864Z,0.97
2023-02-19T18:19:18.218Z,0.77
2023-02-19T18:21:46.022Z,0.70
2023-02-19T18:24:14.324Z,0.60
2023-02-19T18:26:42.180Z,1.08
2023-02-19T18:29:10.203Z,0.80
2023-02-19T18:31:38.136Z,0.65
2023-02-19T18:34:16.463Z,1.23
2023-02-19T18:36:45.669Z,1.00
2023-02-19T18:39:13.485Z,0.88
2023-02-19T18:41:41.310Z,0.73
2023-02-19T18:44:09.097Z,0.52
2023-02-19T18:46:36.898Z,1.10
2023-02-19T18:49:05.053Z,0.90
2023-02-19T18:51:34.269Z,0.65
2023-02-19T18:54:04.055Z,0.90
2023-02-19T18:56:31.907Z,0.77
2023-02-19T18:59:00.403Z,0.90
2023-02-19T19:01:28.267Z,0.85
2023-02-19T19:03:56.110Z,0.90
2023-02-19T19:06:23.882Z,0.70
2023-02-19T19:08:53.044Z,0.80
2023-02-19T19:11:22.621Z,0.80
2023-02-19T19:13:50.379Z,0.70
2023-02-19T19:16:18.208Z,0.85
2023-02-19T19:18:48.224Z,1.17
2023-02-19T19:21:16.779Z,0.95
2023-02-19T19:23:44.626Z,0.95
2023-02-19T19:26:14.599Z,0.85
2023-02-19T19:28:44.493Z,1.05
2023-02-19T19:31:12.933Z,0.80
2023-02-19T19:33:41.304Z,0.90
2023-02-19T19:36:10.422Z,0.88
2023-02-19T19:38:38.779Z,0.70
2023-02-19T19:41:06.881Z,0.95
2023-02-19T19:43:36.245Z,0.70
2023-02-19T19:46:05.130Z,0.60
2023-02-19T19:48:33.189Z,0.65
2023-02-19T19:51:01.043Z,0.70
2023-02-19T19:53:28.868Z,0.93
2023-02-19T19:55:56.760Z,0.83
2023-02-19T19:58:24.699Z,0.70
2023-02-19T20:00:54.070Z,0.60
2023-02-19T20:03:22.078Z,0.93
2023-02-19T20:05:51.251Z,0.80
2023-02-19T20:08:19.570Z,0.73
2023-02-19T20:10:47.567Z,0.90
2023-02-19T20:13:17.631Z,0.80
2023-02-19T20:15:45.666Z,0.50
2023-02-19T20:18:14.916Z,0.70
2023-02-19T20:20:42.732Z,0.80
2023-02-19T20:23:10.556Z,0.60
2023-02-19T20:25:38.425Z,0.80
2023-02-19T20:28:06.685Z,0.77
2023-02-19T20:30:34.804Z,0.77
2023-02-19T20:33:02.803Z,0.87
2023-02-19T20:35:32.443Z,0.90
2023-02-19T20:38:00.292Z,0.90
2023-02-19T20:40:30.585Z,1.02
2023-02-19T20:43:01.044Z,0.70
2023-02-19T20:45:28.896Z,0.80
2023-02-19T20:47:56.673Z,0.65
2023-02-19T20:50:25.721Z,0.90
2023-02-19T20:52:55.733Z,1.10
2023-02-19T20:55:23.817Z,0.60
2023-02-19T20:57:51.642Z,0.80
2023-02-19T21:00:20.601Z,0.95
2023-02-19T21:02:48.400Z,0.77
2023-02-19T21:05:17.622Z,1.02
2023-02-19T21:07:45.404Z,0.70
2023-02-19T21:10:14.722Z,0.80
2023-02-19T21:12:43.094Z,0.70
2023-02-19T21:15:11.028Z,0.80
2023-02-19T21:17:38.810Z,0.80
2023-02-19T21:20:07.899Z,0.85
2023-02-19T21:22:35.763Z,1.00
2023-02-19T21:25:03.536Z,0.80
2023-02-19T21:27:32.748Z,0.80
2023-02-19T21:30:00.531Z,1.05
2023-02-19T21:32:28.334Z,1.10
2023-02-19T21:34:56.819Z,0.90
2023-02-19T21:37:24.592Z,0.85
2023-02-19T21:39:52.725Z,1.30
2023-02-19T21:42:20.730Z,0.93
2023-02-19T21:44:49.921Z,1.38
2023-02-19T21:47:17.700Z,0.80
2023-02-19T21:49:45.626Z,0.80
2023-02-19T21:52:13.470Z,0.68
2023-02-19T21:54:41.227Z,0.70
2023-02-19T21:57:09.474Z,1.00
2023-02-19T21:59:37.402Z,0.97
2023-02-19T22:02:06.571Z,0.77
2023-02-19T22:04:34.361Z,0.90
2023-02-19T22:07:02.137Z,1.25
2023-02-19T22:09:29.921Z,0.93
2023-02-19T22:11:57.698Z,1.20
2023-02-19T22:14:25.466Z,0.70
2023-02-19T22:16:53.269Z,0.93
2023-02-19T22:19:22.512Z,0.60
2023-02-19T22:21:50.362Z,1.00
2023-02-19T22:24:21.413Z,1.20
2023-02-19T22:26:50.684Z,1.50
2023-02-19T22:29:18.683Z,1.30
2023-02-19T22:31:46.716Z,1.00
2023-02-19T22:34:15.574Z,1.30
2023-02-19T22:36:44.945Z,0.83
2023-02-19T22:39:18.633Z,1.77
2023-02-19T22:41:46.944Z,1.33
2023-02-19T22:44:15.182Z,1.13
2023-02-19T22:46:48.783Z,0.90
2023-02-19T22:49:16.753Z,0.93
2023-02-19T22:51:54.600Z,0.95
2023-02-19T22:54:26.713Z,0.80
2023-02-19T22:56:54.898Z,1.02
2023-02-19T22:59:22.902Z,0.80
2023-02-19T23:01:51.736Z,0.70
2023-02-19T23:04:20.902Z,1.10
2023-02-19T23:06:50.531Z,1.00
2023-02-19T23:09:20.393Z,1.52
2023-02-19T23:11:48.552Z,1.20
2023-02-19T23:14:18.007Z,1.20
2023-02-19T23:16:46.051Z,0.63
2023-02-19T23:19:15.698Z,1.02
2023-02-19T23:21:45.589Z,1.75
2023-02-19T23:24:15.579Z,1.10
2023-02-19T23:26:44.617Z,1.20
2023-02-19T23:29:15.268Z,0.77
2023-02-19T23:31:43.255Z,1.02
2023-02-19T23:34:11.115Z,1.02
2023-02-19T23:36:41.452Z,1.30
2023-02-19T23:39:10.416Z,0.90
2023-02-19T23:41:40.048Z,1.05
2023-02-19T23:44:07.838Z,1.65
2023-02-19T23:46:35.645Z,1.30
2023-02-19T23:49:03.470Z,1.42
2023-02-19T23:51:31.402Z,0.90
2023-02-19T23:53:59.198Z,1.52
2023-02-19T23:56:28.677Z,1.27
2023-02-19T23:58:58.409Z,1.60
